Time;durP1;ratioP1;P1;durP2;ratioP2;P2;SDS_P1;SDS_P2;PMS_P1;PMS_P2;Temp;Humidity;BMP_temperature;BMP_pressure;BME280_temperature;BME280_humidity;BME280_pressure;Samples;Min_cycle;Max_cycle;Signal;HPM_P1;HPM_P2
2021/04/15 00:01:10;;;;;;;28.98;11.15;;;;;;;6.45;100.00;100886.42;1691618;84;21147;-91
2021/04/15 00:03:36;;;;;;;29.90;11.68;;;;;;;6.52;100.00;100887.14;1661150;86;21319;-91
2021/04/15 00:06:08;;;;;;;30.05;10.95;;;;;;;6.66;100.00;100883.78;1662959;86;21206;-90
2021/04/15 00:08:34;;;;;;;39.58;12.82;;;;;;;6.59;100.00;100890.05;1662870;86;21604;-91
2021/04/15 00:11:01;;;;;;;36.45;11.65;;;;;;;6.41;100.00;100880.68;1662960;86;21174;-91
2021/04/15 00:13:35;;;;;;;30.20;11.95;;;;;;;6.45;100.00;100881.88;1662847;86;21253;-91
2021/04/15 00:16:02;;;;;;;34.35;13.13;;;;;;;6.23;100.00;100886.86;1663040;86;21155;-91
2021/04/15 00:18:29;;;;;;;42.30;13.72;;;;;;;6.01;100.00;100880.34;1663009;86;21240;-90
2021/04/15 00:20:55;;;;;;;30.10;12.30;;;;;;;6.08;100.00;100875.73;1662987;86;21212;-91
2021/04/15 00:23:22;;;;;;;36.70;14.18;;;;;;;6.10;100.00;100876.33;1662915;86;21166;-90
2021/04/15 00:25:48;;;;;;;38.08;15.25;;;;;;;6.07;100.00;100884.28;1662938;86;21203;-91
2021/04/15 00:28:15;;;;;;;40.75;14.40;;;;;;;6.06;100.00;100881.81;1662730;86;21048;-91
2021/04/15 00:30:42;;;;;;;45.48;16.25;;;;;;;5.99;100.00;100878.41;1662998;86;21595;-91
2021/04/15 00:33:10;;;;;;;38.28;14.63;;;;;;;5.98;100.00;100879.45;1662773;85;21608;-91
2021/04/15 00:35:38;;;;;;;35.73;14.60;;;;;;;6.08;100.00;100873.05;1654796;86;21224;-91
2021/04/15 00:38:06;;;;;;;36.68;15.20;;;;;;;6.07;100.00;100868.23;1649326;87;21259;-90
2021/04/15 00:40:34;;;;;;;42.80;16.62;;;;;;;6.06;100.00;100871.11;1649337;87;21130;-91
2021/04/15 00:43:01;;;;;;;38.00;16.37;;;;;;;5.99;100.00;100872.53;1649313;87;21769;-90
2021/04/15 00:45:31;;;;;;;41.90;16.23;;;;;;;5.92;100.00;100874.44;1649286;87;21253;-90
2021/04/15 00:48:28;;;;;;;36.23;14.87;;;;;;;6.08;100.00;100878.41;1649309;87;21583;-90
2021/04/15 00:51:03;;;;;;;36.77;15.88;;;;;;;6.04;100.00;100866.00;1649063;87;21169;-91
2021/04/15 00:53:40;;;;;;;42.85;16.80;;;;;;;5.92;100.00;100869.09;1652604;85;21242;-90
2021/04/15 00:56:08;;;;;;;42.10;17.48;;;;;;;5.92;100.00;100862.41;1651908;85;21164;-90
2021/04/15 00:58:36;;;;;;;41.63;18.30;;;;;;;5.88;100.00;100854.02;1649227;87;21611;-90
2021/04/15 01:01:04;;;;;;;45.92;16.62;;;;;;;5.81;100.00;100849.76;1660363;86;21151;-91
2021/04/15 01:03:33;;;;;;;46.25;17.12;;;;;;;5.87;100.00;100852.88;1661154;86;21159;-91
2021/04/15 01:05:58;;;;;;;44.93;16.57;;;;;;;6.01;100.00;100856.27;1661276;86;21112;-91
2021/04/15 01:08:24;;;;;;;41.37;17.05;;;;;;;5.97;100.00;100863.09;1661112;86;21599;-91
2021/04/15 01:11:11;;;;;;;46.15;16.62;;;;;;;6.07;100.00;100860.73;1661094;86;21600;-90
2021/04/15 01:14:09;;;;;;;46.48;17.35;;;;;;;6.11;100.00;100863.24;1661390;86;21191;-90
2021/04/15 01:17:06;;;;;;;42.78;17.65;;;;;;;6.18;100.00;100859.98;1661982;86;21088;-90
2021/04/15 01:20:07;;;;;;;47.05;17.52;;;;;;;5.90;100.00;100858.59;1661441;85;21191;-90
2021/04/15 01:23:31;;;;;;;48.60;20.00;;;;;;;5.98;100.00;100858.05;1661165;86;21266;-91
2021/04/15 01:26:54;;;;;;;52.98;19.35;;;;;;;5.96;100.00;100863.61;1661178;86;21469;-90
2021/04/15 01:29:37;;;;;;;48.15;19.10;;;;;;;5.83;100.00;100854.37;1661213;86;21163;-90
2021/04/15 01:32:34;;;;;;;49.83;18.87;;;;;;;5.70;100.00;100864.14;1661628;86;21211;-90
2021/04/15 01:35:11;;;;;;;49.55;18.52;;;;;;;5.82;100.00;100864.76;1665853;84;21407;-90
2021/04/15 01:38:08;;;;;;;47.90;19.42;;;;;;;5.79;100.00;100855.31;1684028;85;21222;-90
2021/04/15 01:40:45;;;;;;;48.45;18.77;;;;;;;5.63;100.00;100852.70;1684034;84;21628;-90
2021/04/15 01:43:23;;;;;;;50.48;19.35;;;;;;;5.49;100.00;100855.73;1633881;86;21340;-89
2021/04/15 01:45:52;;;;;;;52.78;20.08;;;;;;;5.55;100.00;100857.52;1585759;90;21189;-90
2021/04/15 01:48:24;;;;;;;45.55;18.23;;;;;;;5.61;100.00;100857.45;1585717;90;21134;-90
2021/04/15 01:50:57;;;;;;;47.53;19.00;;;;;;;5.60;100.00;100856.34;1585701;89;21599;-90
2021/04/15 01:53:37;;;;;;;44.53;20.08;;;;;;;5.78;100.00;100857.70;1585625;90;25933;-90
2021/04/15 01:56:17;;;;;;;43.50;17.25;;;;;;;5.84;100.00;100854.66;1584753;90;21185;-90
2021/04/15 01:58:55;;;;;;;48.70;18.87;;;;;;;5.91;100.00;100842.02;1584165;90;21114;-91
2021/04/15 02:01:24;;;;;;;44.38;17.23;;;;;;;5.89;100.00;100842.79;1536928;92;21560;-91
2021/04/15 02:03:54;;;;;;;45.43;17.87;;;;;;;5.89;100.00;100851.63;1536911;92;21463;-91
2021/04/15 02:06:26;;;;;;;46.65;17.92;;;;;;;5.80;100.00;100844.13;1536762;93;21264;-90
2021/04/15 02:08:56;;;;;;;38.50;15.30;;;;;;;5.90;100.00;100847.90;1492386;96;21190;-91
2021/04/15 02:11:41;;;;;;;34.30;14.73;;;;;;;5.96;100.00;100849.42;1489770;96;21201;-90
2021/04/15 02:14:12;;;;;;;39.55;15.20;;;;;;;6.06;100.00;100849.70;1447469;99;21212;-90
2021/04/15 02:16:42;;;;;;;34.18;14.43;;;;;;;5.84;100.00;100850.66;1430293;99;21872;-89
2021/04/15 02:19:39;;;;;;;38.15;15.08;;;;;;;5.91;100.00;100841.53;1447586;99;21400;-89
2021/04/15 02:22:27;;;;;;;33.75;14.90;;;;;;;6.03;100.00;100844.31;1451851;96;21242;-90
2021/04/15 02:25:14;;;;;;;39.63;15.25;;;;;;;6.09;100.00;100846.61;1490672;95;21314;-90
2021/04/15 02:27:51;;;;;;;42.45;14.60;;;;;;;6.08;100.00;100847.11;1490984;94;21250;-90
2021/04/15 02:30:29;;;;;;;36.17;14.38;;;;;;;6.08;100.00;100851.65;1490973;96;21239;-90
2021/04/15 02:33:03;;;;;;;35.00;15.20;;;;;;;6.20;100.00;100850.37;1490578;96;21252;-90
2021/04/15 02:35:51;;;;;;;36.45;15.23;;;;;;;6.17;100.00;100843.61;1460347;96;21223;-90
2021/04/15 02:38:22;;;;;;;45.45;15.30;;;;;;;6.12;100.00;100846.17;1425117;100;21254;-90
2021/04/15 02:40:53;;;;;;;34.13;13.45;;;;;;;6.22;100.00;100846.97;1483195;96;21276;-90
2021/04/15 02:43:26;;;;;;;34.20;13.32;;;;;;;6.33;100.00;100840.34;1454438;98;21451;-90
2021/04/15 02:45:56;;;;;;;34.70;14.28;;;;;;;6.23;100.00;100840.03;1443399;97;21262;-90
2021/04/15 02:48:27;;;;;;;30.05;13.50;;;;;;;6.32;100.00;100838.71;1425285;100;21195;-90
2021/04/15 02:51:00;;;;;;;36.90;14.45;;;;;;;6.40;100.00;100842.11;1445063;98;21230;-90
2021/04/15 02:53:38;;;;;;;;;;;;;;;6.44;100.00;100840.59;1427540;100;21214;-89
2021/04/15 02:56:27;;;;;;;33.73;13.22;;;;;;;6.47;100.00;100839.66;1445130;99;21251;-90
2021/04/15 02:59:06;;;;;;;34.55;13.62;;;;;;;6.43;100.00;100838.98;1334815;106;21329;-90
2021/04/15 03:01:37;;;;;;;36.70;14.00;;;;;;;6.55;100.00;100833.14;1316720;108;21297;-90
2021/04/15 03:04:06;;;;;;;35.28;13.45;;;;;;;6.55;100.00;100839.31;1316754;107;21289;-91
2021/04/15 03:06:35;;;;;;;27.55;12.47;;;;;;;6.52;100.00;100832.27;1364334;104;21329;-90
2021/04/15 03:09:05;;;;;;;35.05;13.45;;;;;;;6.43;100.00;100832.28;1371234;103;21251;-91
2021/04/15 03:11:40;;;;;;;33.95;13.30;;;;;;;6.40;100.00;100838.09;1386996;103;21108;-91
2021/04/15 03:14:11;;;;;;;31.82;12.95;;;;;;;6.56;100.00;100834.80;1351153;106;21271;-91
2021/04/15 03:16:44;;;;;;;31.02;13.05;;;;;;;6.62;100.00;100829.03;1334347;107;21724;-91
2021/04/15 03:19:20;;;;;;;31.30;12.47;;;;;;;6.52;100.00;100825.05;1353225;104;21322;-91
2021/04/15 03:21:52;;;;;;;29.35;12.55;;;;;;;6.51;100.00;100823.95;1318267;108;21353;-90
2021/04/15 03:24:32;;;;;;;30.50;12.93;;;;;;;6.67;100.00;100827.30;1384658;103;21252;-89
2021/04/15 03:27:36;;;;;;;33.60;13.43;;;;;;;6.60;100.00;100829.27;1317243;108;21627;-90
2021/04/15 03:30:23;;;;;;;31.45;12.35;;;;;;;6.73;100.00;100833.61;1350143;105;21149;-91
2021/04/15 03:32:57;;;;;;;32.33;12.45;;;;;;;6.62;100.00;100829.87;1318656;108;21285;-90
2021/04/15 03:35:31;;;;;;;32.40;12.88;;;;;;;6.65;100.00;100842.80;1317367;108;21965;-91
2021/04/15 03:38:26;;;;;;;32.80;12.70;;;;;;;6.77;100.00;100837.48;1317466;108;21349;-91
2021/04/15 03:40:58;;;;;;;32.40;12.43;;;;;;;6.75;100.00;100838.23;1315741;109;21749;-90
2021/04/15 03:43:37;;;;;;;31.33;12.90;;;;;;;6.80;100.00;100841.05;1306667;109;21376;-91
2021/04/15 03:46:09;;;;;;;29.32;12.55;;;;;;;6.89;100.00;100849.58;1297419;110;21191;-90
2021/04/15 03:48:49;;;;;;;41.53;13.75;;;;;;;7.00;100.00;100849.60;1291009;111;21310;-91
2021/04/15 03:51:23;;;;;;;35.20;12.55;;;;;;;7.09;100.00;100848.75;1268113;111;21664;-92
2021/04/15 03:54:06;;;;;;;39.27;12.40;;;;;;;7.22;100.00;100841.01;1291092;111;21311;-91
2021/04/15 03:56:45;;;;;;;34.20;12.00;;;;;;;7.34;100.00;100841.83;1288264;107;28413;-92
2021/04/15 03:59:43;;;;;;;33.67;13.05;;;;;;;7.44;100.00;100843.42;1362549;102;21581;-92
2021/04/15 04:02:14;;;;;;;40.80;13.25;;;;;;;7.48;100.00;100846.45;1379074;102;21399;-92
2021/04/15 04:04:51;;;;;;;36.25;13.30;;;;;;;7.50;100.00;100846.52;1323650;106;21860;-92
2021/04/15 04:07:27;;;;;;;38.60;13.25;;;;;;;7.63;100.00;100847.33;1327442;108;21306;-92
2021/04/15 04:10:04;;;;;;;43.48;14.40;;;;;;;7.56;100.00;100846.61;1309253;109;21318;-92
2021/04/15 04:12:54;;;;;;;32.42;12.03;;;;;;;7.72;100.00;100838.68;1351166;106;21676;-92
2021/04/15 04:15:30;;;;;;;38.42;12.78;;;;;;;7.65;100.00;100845.23;1344601;106;21346;-93
2021/04/15 04:18:07;;;;;;;33.67;12.70;;;;;;;7.79;100.00;100841.23;1334257;107;21319;-92
2021/04/15 04:20:38;;;;;;;40.98;12.63;;;;;;;7.87;100.00;100846.78;1334514;107;21305;-92
2021/04/15 04:23:18;;;;;;;33.20;12.07;;;;;;;7.91;100.00;100845.23;1333554;106;21359;-93
2021/04/15 04:26:07;;;;;;;30.08;11.83;;;;;;;8.07;100.00;100842.38;1335652;106;21993;-93
2021/04/15 04:29:06;;;;;;;33.00;11.63;;;;;;;7.92;100.00;100841.00;1333075;107;21698;-93
2021/04/15 04:31:36;;;;;;;32.80;11.83;;;;;;;7.91;100.00;100830.48;1312661;109;21340;-91
2021/04/15 04:34:04;;;;;;;31.30;11.12;;;;;;;8.15;100.00;100844.69;1283694;110;21392;-93
2021/04/15 04:36:35;;;;;;;38.83;13.03;;;;;;;8.06;100.00;100856.32;1278274;109;21372;-92
2021/04/15 04:39:04;;;;;;;34.23;11.53;;;;;;;8.20;100.00;100847.45;1274443;111;21361;-92
2021/04/15 04:41:41;;;;;;;32.45;10.80;;;;;;;8.17;100.00;100844.72;1273925;111;22108;-92
2021/04/15 04:44:15;;;;;;;36.05;11.88;;;;;;;8.11;100.00;100844.33;1299508;110;21844;-92
2021/04/15 04:46:48;;;;;;;34.45;11.80;;;;;;;8.06;100.00;100854.98;1313098;107;21707;-92
2021/04/15 04:49:22;;;;;;;32.70;11.03;;;;;;;8.04;100.00;100856.27;1342217;105;21295;-92
2021/04/15 04:51:56;;;;;;;31.40;10.98;;;;;;;8.04;100.00;100851.70;1303502;109;21314;-92
2021/04/15 04:54:22;;;;;;;;;;;;;;;8.20;100.00;100849.61;1308437;109;21986;-92
2021/04/15 04:57:03;;;;;;;32.00;10.58;;;;;;;8.15;100.00;100847.37;1306274;109;20351;-92
2021/04/15 04:59:36;;;;;;;38.08;11.93;;;;;;;8.16;100.00;100850.34;1303261;109;21287;-93
2021/04/15 05:02:02;;;;;;;46.23;11.65;;;;;;;8.18;100.00;100850.93;1308049;109;28426;-94
2021/04/15 05:04:32;;;;;;;37.20;12.25;;;;;;;8.24;100.00;100850.51;1311831;109;21834;-93
2021/04/15 05:07:06;;;;;;;29.72;11.30;;;;;;;8.17;100.00;100847.94;1330472;107;21923;-92
2021/04/15 05:09:39;;;;;;;33.33;11.48;;;;;;;8.26;100.00;100846.50;1352570;104;21362;-93
2021/04/15 05:12:09;;;;;;;37.67;11.33;;;;;;;8.20;100.00;100848.80;1357202;105;21165;-93
2021/04/15 05:14:37;;;;;;;35.10;10.85;;;;;;;8.38;100.00;100847.81;1357240;104;21230;-94
2021/04/15 05:17:17;;;;;;;38.02;10.80;;;;;;;8.25;100.00;100844.89;1357092;105;21304;-91
2021/04/15 05:19:43;;;;;;;39.70;10.90;;;;;;;8.23;100.00;100843.48;1386054;100;21905;-91
2021/04/15 05:22:19;;;;;;;32.93;11.10;;;;;;;8.40;100.00;100854.61;1433727;100;21230;-91
2021/04/15 05:24:50;;;;;;;35.78;11.20;;;;;;;8.55;100.00;100852.74;1435536;98;21295;-92
2021/04/15 05:27:22;;;;;;;33.90;11.12;;;;;;;8.47;100.00;100850.97;1449747;97;21095;-91
2021/04/15 05:29:53;;;;;;;37.50;11.83;;;;;;;8.52;100.00;100855.09;1503060;94;21214;-90
2021/04/15 05:32:19;;;;;;;30.23;10.95;;;;;;;8.48;100.00;100849.39;1524116;94;22655;-90
2021/04/15 05:34:52;;;;;;;32.28;10.98;;;;;;;8.31;100.00;100845.80;1527143;94;21119;-89
2021/04/15 05:37:23;;;;;;;25.57;10.35;;;;;;;8.22;100.00;100851.27;1532528;93;21154;-90
2021/04/15 05:39:52;;;;;;;29.52;10.60;;;;;;;8.22;100.00;100852.61;1494104;96;21276;-90
2021/04/15 05:42:23;;;;;;;31.17;11.60;;;;;;;8.03;100.00;100850.59;1494118;96;21176;-91
2021/04/15 05:45:03;;;;;;;31.77;11.33;;;;;;;8.16;100.00;100847.66;1537551;92;23070;-90
2021/04/15 05:47:38;;;;;;;38.15;10.75;;;;;;;8.05;100.00;100848.49;1532009;92;21192;-90
2021/04/15 05:50:09;;;;;;;33.28;11.25;;;;;;;8.12;100.00;100843.30;1471988;96;21130;-90
2021/04/15 05:52:43;;;;;;;31.10;10.53;;;;;;;8.13;100.00;100844.91;1470339;97;21280;-89
2021/04/15 05:55:26;;;;;;;31.35;11.08;;;;;;;8.28;100.00;100847.63;1469590;96;21228;-88
2021/04/15 05:57:58;;;;;;;31.02;11.33;;;;;;;8.25;100.00;100845.42;1427127;100;21310;-92
2021/04/15 06:00:32;;;;;;;30.95;10.23;;;;;;;8.20;100.00;100846.11;1426927;100;21302;-92
2021/04/15 06:03:18;;;;;;;35.90;11.40;;;;;;;8.19;100.00;100849.33;1426888;100;21529;-92
2021/04/15 06:05:55;;;;;;;33.33;11.40;;;;;;;8.17;100.00;100851.96;1426838;100;21300;-92
2021/04/15 06:08:23;;;;;;;34.27;12.55;;;;;;;8.25;100.00;100854.81;1440040;97;21652;-92
2021/04/15 06:10:51;;;;;;;35.23;11.45;;;;;;;8.39;100.00;100850.84;1458815;97;21998;-91
2021/04/15 06:13:40;;;;;;;34.30;12.40;;;;;;;8.55;100.00;100854.62;1470002;97;21264;-92
2021/04/15 06:16:12;;;;;;;39.27;11.93;;;;;;;8.58;100.00;100852.80;1469989;96;21709;-90
2021/04/15 06:18:45;;;;;;;36.48;12.18;;;;;;;8.57;100.00;100857.36;1436927;99;21325;-92
2021/04/15 06:21:28;;;;;;;35.15;12.00;;;;;;;8.54;100.00;100853.80;1437040;99;21228;-91
2021/04/15 06:24:07;;;;;;;44.07;13.20;;;;;;;8.56;100.00;100854.89;1414929;101;21484;-91
2021/04/15 06:26:50;;;;;;;36.00;11.22;;;;;;;8.44;100.00;100857.63;1417317;98;21611;-92
2021/04/15 06:29:44;;;;;;;38.40;11.73;;;;;;;8.51;100.00;100862.34;1450094;98;21543;-92
2021/04/15 06:32:40;;;;;;;38.48;12.68;;;;;;;8.40;100.00;100862.66;1449750;98;21736;-93
2021/04/15 06:35:11;;;;;;;37.25;12.35;;;;;;;8.61;100.00;100861.18;1450180;98;21300;-92
2021/04/15 06:37:48;;;;;;;36.95;12.23;;;;;;;8.57;100.00;100864.61;1450954;98;21338;-93
2021/04/15 06:40:43;;;;;;;42.95;14.40;;;;;;;8.74;100.00;100860.63;1451443;98;21290;-93
2021/04/15 06:43:36;;;;;;;54.80;16.23;;;;;;;8.72;100.00;100864.89;1451452;97;21322;-92
2021/04/15 06:46:47;;;;;;;71.62;24.30;;;;;;;8.90;100.00;100865.20;1453919;97;21388;-93
2021/04/15 06:49:33;;;;;;;85.12;28.90;;;;;;;9.06;100.00;100863.08;1452037;98;21687;-94
2021/04/15 06:52:19;;;;;;;52.88;18.35;;;;;;;9.08;100.00;100864.17;1450505;98;21983;-93
2021/04/15 06:55:15;;;;;;;39.03;13.20;;;;;;;9.11;100.00;100865.02;1453822;98;21296;-93
2021/04/15 06:58:07;;;;;;;39.53;13.62;;;;;;;9.09;100.00;100863.13;1458463;98;21312;-93
2021/04/15 07:01:08;;;;;;;37.23;14.45;;;;;;;9.55;100.00;100860.62;1403020;102;21286;-93
2021/04/15 07:04:03;;;;;;;39.27;13.60;;;;;;;9.66;100.00;100858.90;1387393;103;21734;-93
2021/04/15 07:07:04;;;;;;;62.00;24.15;;;;;;;9.83;100.00;100856.72;1420125;101;21962;-93
2021/04/15 07:09:51;;;;;;;73.07;23.25;;;;;;;10.01;100.00;100857.77;1417184;101;21300;-93
2021/04/15 07:13:11;;;;;;;38.90;12.90;;;;;;;10.09;100.00;100852.47;1419995;101;21277;-92
2021/04/15 07:16:16;;;;;;;27.50;10.50;;;;;;;10.14;100.00;100840.42;1420002;99;21244;-93
2021/04/15 07:18:58;;;;;;;31.02;10.70;;;;;;;9.94;100.00;100851.23;1419897;100;21425;-93
2021/04/15 07:21:52;;;;;;;29.70;10.05;;;;;;;10.09;100.00;100841.69;1442075;97;21260;-93
2021/04/15 07:25:00;;;;;;;27.07;9.88;;;;;;;10.09;100.00;100836.30;1567024;91;21723;-93
2021/04/15 07:28:05;;;;;;;26.68;10.63;;;;;;;10.10;100.00;100838.77;1554173;91;21200;-93
2021/04/15 07:30:56;;;;;;;22.15;8.63;;;;;;;9.87;100.00;100843.84;1574798;91;21200;-93
2021/04/15 07:34:03;;;;;;;22.60;8.20;;;;;;;9.84;100.00;100844.34;1570318;91;21879;-92
2021/04/15 07:36:59;;;;;;;18.67;7.85;;;;;;;9.99;100.00;100845.89;1574622;89;21301;-93
2021/04/15 07:40:08;;;;;;;23.35;8.70;;;;;;;9.94;100.00;100845.84;1576613;91;21153;-92
2021/04/15 07:43:01;;;;;;;21.90;8.50;;;;;;;9.98;100.00;100844.81;1577250;91;21193;-92
2021/04/15 07:45:44;;;;;;;18.25;8.10;;;;;;;10.07;100.00;100837.11;1558654;92;21239;-92
2021/04/15 07:48:51;;;;;;;35.95;13.75;;;;;;;10.11;100.00;100842.27;1590852;89;21268;-89
2021/04/15 07:51:42;;;;;;;24.70;9.43;;;;;;;10.24;100.00;100843.25;1610058;89;21273;-93
2021/04/15 07:54:48;;;;;;;20.62;9.13;;;;;;;10.38;100.00;100844.53;1554449;92;21192;-91
2021/04/15 07:57:56;;;;;;;22.45;8.80;;;;;;;10.46;100.00;100833.81;1557441;92;21311;-92
2021/04/15 08:00:59;;;;;;;19.37;6.60;;;;;;;10.69;100.00;100840.27;1537695;92;21282;-93
2021/04/15 08:03:58;;;;;;;53.60;16.23;;;;;;;10.89;100.00;100830.21;1557930;92;21192;-92
2021/04/15 08:06:51;;;;;;;36.60;13.55;;;;;;;11.13;100.00;100829.87;1554318;92;21268;-92
2021/04/15 08:10:10;;;;;;;33.35;12.28;;;;;;;11.09;100.00;100826.08;1560431;89;21175;-93
2021/04/15 08:13:04;;;;;;;36.60;13.60;;;;;;;11.07;100.00;100825.51;1557873;92;21233;-93
2021/04/15 08:15:50;;;;;;;25.75;10.35;;;;;;;11.25;100.00;100831.85;1557638;92;21216;-91
2021/04/15 08:18:24;;;;;;;30.25;11.30;;;;;;;11.23;100.00;100825.08;1557507;92;21256;-91
2021/04/15 08:21:07;;;;;;;21.17;7.12;;;;;;;11.28;100.00;100823.23;1543560;91;21448;-94
2021/04/15 08:24:08;;;;;;;24.57;9.53;;;;;;;11.82;100.00;100816.81;1543980;92;21120;-93
2021/04/15 08:27:12;;;;;;;18.48;6.95;;;;;;;11.63;100.00;100819.16;1557748;92;21225;-94
2021/04/15 08:30:28;;;;;;;19.12;7.80;;;;;;;11.68;100.00;100816.50;1558096;92;21237;-94
2021/04/15 08:33:11;;;;;;;19.25;7.17;;;;;;;11.81;100.00;100817.91;1592729;88;21131;-93
2021/04/15 08:36:10;;;;;;;20.47;8.03;;;;;;;12.04;100.00;100818.05;1611561;89;21280;-91
2021/04/15 08:39:23;;;;;;;24.57;10.45;;;;;;;12.16;100.00;100812.41;1603739;89;21646;-89
2021/04/15 08:42:12;;;;;;;19.37;6.97;;;;;;;12.22;100.00;100808.66;1609312;88;21651;-88
2021/04/15 08:44:59;;;;;;;13.85;5.95;;;;;;;12.18;100.00;100808.38;1627756;88;21601;-88
2021/04/15 08:48:08;;;;;;;21.37;7.72;;;;;;;12.28;100.00;100808.94;1625754;88;21195;-89
2021/04/15 08:50:54;;;;;;;10.53;4.83;;;;;;;12.39;100.00;100804.38;1606617;88;22171;-88
2021/04/15 08:53:37;;;;;;;15.75;5.83;;;;;;;12.36;100.00;100804.38;1606383;89;21188;-89
2021/04/15 08:56:27;;;;;;;14.87;5.87;;;;;;;12.27;100.00;100798.67;1603341;88;21201;-89
2021/04/15 08:59:35;;;;;;;12.23;5.62;;;;;;;12.33;100.00;100798.70;1633864;86;21170;-89
2021/04/15 09:02:45;;;;;;;14.68;6.22;;;;;;;12.44;100.00;100801.16;1638812;87;21337;-89
2021/04/15 09:05:22;;;;;;;11.93;5.30;;;;;;;12.59;100.00;100802.23;1630837;87;21689;-93
2021/04/15 09:08:12;;;;;;;11.40;5.30;;;;;;;12.84;100.00;100800.92;1666550;85;21170;-90
2021/04/15 09:11:16;;;;;;;12.55;6.03;;;;;;;12.61;100.00;100798.19;1614211;86;21591;-91
2021/04/15 09:14:00;;;;;;;11.22;4.83;;;;;;;12.74;100.00;100792.82;1614592;87;21190;-92
2021/04/15 09:16:42;;;;;;;11.57;5.10;;;;;;;12.74;100.00;100792.82;1611313;87;21684;-93
2021/04/15 09:19:28;;;;;;;8.78;4.30;;;;;;;12.89;100.00;100796.87;1546061;91;21292;-87
2021/04/15 09:22:12;;;;;;;11.75;5.17;;;;;;;12.83;100.00;100795.80;1541833;92;21179;-88
2021/04/15 09:24:58;;;;;;;10.78;4.87;;;;;;;13.08;100.00;100797.14;1546200;92;21195;-88
2021/04/15 09:27:41;;;;;;;15.32;5.83;;;;;;;13.15;100.00;100796.34;1546134;92;21276;-88
2021/04/15 09:30:29;;;;;;;9.13;4.50;;;;;;;13.75;100.00;100791.09;1555986;92;21279;-88
2021/04/15 09:33:07;;;;;;;13.50;5.08;;;;;;;14.63;100.00;100780.66;1555832;92;22070;-88
2021/04/15 09:35:48;;;;;;;11.80;5.80;;;;;;;14.99;100.00;100777.09;1554197;92;21209;-88
2021/04/15 09:38:57;;;;;;;11.83;4.30;;;;;;;15.04;100.00;100778.42;1555783;92;21293;-88
2021/04/15 09:41:45;;;;;;;7.78;3.80;;;;;;;14.61;100.00;100789.05;1514001;94;21635;-88
2021/04/15 09:44:50;;;;;;;13.13;4.65;;;;;;;14.78;100.00;100774.30;1510917;94;21194;-88
2021/04/15 09:47:30;;;;;;;8.10;3.65;;;;;;;14.84;100.00;100774.52;1498257;94;21631;-88
2021/04/15 09:50:31;;;;;;;8.98;4.53;;;;;;;14.76;100.00;100776.77;1566795;91;21257;-88
2021/04/15 09:53:15;;;;;;;10.03;4.70;;;;;;;14.75;100.00;100775.13;1566535;91;21269;-87
2021/04/15 09:56:13;;;;;;;7.47;4.33;;;;;;;15.35;100.00;100754.52;1563742;91;21485;-87
2021/04/15 09:58:47;;;;;;;11.08;4.83;;;;;;;15.35;100.00;100754.52;1566689;91;21272;-88
2021/04/15 10:01:24;;;;;;;10.88;4.40;;;;;;;15.48;100.00;100769.86;1561073;91;21294;-88
2021/04/15 10:03:56;;;;;;;11.53;5.20;;;;;;;15.00;100.00;100766.53;1565178;91;21293;-88
2021/04/15 10:06:30;;;;;;;8.98;4.50;;;;;;;14.89;100.00;100773.13;1566254;90;21593;-88
2021/04/15 10:09:07;;;;;;;8.90;4.25;;;;;;;14.75;100.00;100769.69;1514389;94;21538;-87
2021/04/15 10:12:04;;;;;;;5.58;3.42;;;;;;;14.79;100.00;100773.20;1515670;94;21246;-87
2021/04/15 10:14:50;;;;;;;7.40;3.92;;;;;;;14.34;100.00;100775.92;1514881;94;21208;-90
2021/04/15 10:17:40;;;;;;;7.33;3.90;;;;;;;13.85;100.00;100783.47;1501164;93;21650;-93
2021/04/15 10:20:26;;;;;;;10.38;3.83;;;;;;;13.86;100.00;100785.11;1533304;90;21284;-91
2021/04/15 10:23:39;;;;;;;6.12;3.37;;;;;;;13.71;100.00;100789.23;1511747;92;21191;-93
2021/04/15 10:26:36;;;;;;;7.10;3.10;;;;;;;13.56;100.00;100790.05;1537722;92;21208;-91
2021/04/15 10:29:45;;;;;;;6.05;3.20;;;;;;;13.71;100.00;100788.68;1553146;92;21366;-92
2021/04/15 10:32:26;;;;;;;12.60;3.65;;;;;;;13.90;100.00;100797.00;1533917;92;21676;-93
2021/04/15 10:35:24;;;;;;;7.25;3.52;;;;;;;13.58;100.00;100793.30;1531145;92;21262;-92
2021/04/15 10:38:27;;;;;;;7.05;3.85;;;;;;;13.34;100.00;100794.44;1530799;92;21286;-91
2021/04/15 10:41:04;;;;;;;7.10;3.17;;;;;;;13.43;100.00;100786.58;1524697;93;21260;-90
2021/04/15 10:44:18;;;;;;;4.83;2.92;;;;;;;13.42;100.00;100790.38;1524536;93;21903;-90
2021/04/15 10:46:55;;;;;;;6.67;3.55;;;;;;;13.34;100.00;100793.09;1524333;93;21271;-91
2021/04/15 10:49:36;;;;;;;6.22;3.50;;;;;;;13.24;100.00;100793.09;1524378;93;21172;-91
2021/04/15 10:52:27;;;;;;;9.45;3.95;;;;;;;13.18;100.00;100788.22;1524337;92;21241;-93
2021/04/15 10:55:13;;;;;;;6.58;3.47;;;;;;;12.78;100.00;100791.19;1526634;93;21647;-92
2021/04/15 10:57:39;;;;;;;9.05;3.55;;;;;;;12.75;100.00;100790.38;1532241;93;21462;-91
2021/04/15 11:00:32;;;;;;;6.97;3.50;;;;;;;12.73;100.00;100783.90;1547601;91;21069;-90
2021/04/15 11:03:20;;;;;;;7.90;3.15;;;;;;;12.90;100.00;100780.91;1570308;90;21247;-89
2021/04/15 11:05:50;;;;;;;7.25;3.42;;;;;;;12.76;100.00;100783.07;1589976;88;21294;-89
2021/04/15 11:08:24;;;;;;;7.03;3.55;;;;;;;12.83;100.00;100777.67;1616582;87;21181;-90
2021/04/15 11:11:11;;;;;;;6.33;3.05;;;;;;;12.87;100.00;100775.23;1612957;88;21176;-89
2021/04/15 11:13:38;;;;;;;7.37;3.77;;;;;;;12.82;100.00;100772.52;1613207;88;21014;-87
2021/04/15 11:16:14;;;;;;;8.05;3.17;;;;;;;12.70;100.00;100773.59;1613145;88;21553;-87
2021/04/15 11:18:42;;;;;;;4.92;2.67;;;;;;;12.75;100.00;100771.99;1607988;88;21235;-87
2021/04/15 11:21:26;;;;;;;5.10;2.83;;;;;;;12.85;100.00;100770.62;1612807;88;21332;-86
2021/04/15 11:23:54;;;;;;;;;;;;;;;12.73;100.00;100766.84;1615550;88;21182;-86
2021/04/15 11:26:31;;;;;;;6.47;3.15;;;;;;;12.82;100.00;100764.41;1613068;88;20284;-86
2021/04/15 11:28:59;;;;;;;6.42;3.37;;;;;;;12.72;100.00;100767.39;1609986;88;21204;-84
2021/04/15 11:31:37;;;;;;;8.48;4.03;;;;;;;12.85;100.00;100765.22;1612986;88;21279;-84
2021/04/15 11:34:09;;;;;;;7.40;3.47;;;;;;;12.74;100.00;100767.12;1595046;90;21186;-84
2021/04/15 11:36:39;;;;;;;6.10;3.42;;;;;;;12.70;100.00;100764.67;1496733;95;21506;-85
2021/04/15 11:39:23;;;;;;;8.88;3.75;;;;;;;12.75;100.00;100767.39;1496763;95;21628;-84
2021/04/15 11:42:04;;;;;;;8.58;3.80;;;;;;;12.91;100.00;100764.97;1495968;95;21246;-85
2021/04/15 11:44:35;;;;;;;8.83;4.10;;;;;;;13.15;100.00;100766.57;1496995;95;21364;-85
2021/04/15 11:47:09;;;;;;;8.68;4.55;;;;;;;13.49;100.00;100765.98;1443091;99;21274;-85
2021/04/15 11:49:40;;;;;;;6.83;3.85;;;;;;;13.79;100.00;100761.55;1402936;102;21342;-85
2021/04/15 11:52:31;;;;;;;6.33;3.85;;;;;;;13.98;100.00;100755.78;1408004;101;21255;-86
2021/04/15 11:55:03;;;;;;;6.85;3.47;;;;;;;13.90;100.00;100748.23;1408094;101;21278;-85
2021/04/15 11:57:38;;;;;;;6.70;3.40;;;;;;;13.45;100.00;100744.62;1407898;100;21729;-87
2021/04/15 12:00:09;;;;;;;4.58;2.65;;;;;;;13.55;100.00;100743.77;1374811;104;21615;-88
2021/04/15 12:02:45;;;;;;;5.12;3.10;;;;;;;13.55;100.00;100737.80;1372943;103;21287;-88
2021/04/15 12:05:29;;;;;;;6.42;3.45;;;;;;;13.78;100.00;100736.91;1373261;104;21638;-89
2021/04/15 12:08:22;;;;;;;6.90;3.45;;;;;;;13.86;100.00;100727.66;1374574;103;21316;-89
2021/04/15 12:10:57;;;;;;;4.20;2.58;;;;;;;13.98;100.00;100734.66;1371151;104;21274;-89
2021/04/15 12:13:29;;;;;;;8.00;3.10;;;;;;;13.91;100.00;100730.07;1359024;105;21342;-89
2021/04/15 12:16:09;;;;;;;5.22;2.40;;;;;;;13.85;100.00;100727.93;1359028;105;21291;-89